LEPP/PNA METAR and TAF weather

Enter ICAO airport designator
Station Type Date Time Source
LEPP METAR 2020/07/12 02:00 UTC NOAA

LEPP 120200Z AUTO 00000KT CAVOK 16/13 Q1019


Station Type Date Time Source
LEPP Decoded METAR 2020/07/12 02:00 UTC NOAA

Pamplona / Noain, Spain (LEPP) 42-46N 001-38W 453M
Jul 11, 2020 - 10:00 PM EDT / 2020.07.12 0200 UTC
Wind: Calm:0
Visibility: greater than 7 mile(s):0
Temperature: 60 F (16 C)
Dew Point: 55 F (13 C)
Relative Humidity: 82%
Pressure (altimeter): 30.09 in. Hg (1019 hPa)
ob: LEPP 120200Z AUTO 00000KT CAVOK 16/13 Q1019
cycle: 2

Station Type Date Time Source
LEPP TAF 2020/07/11 21:27 UTC NOAA

TAF LEPP 112000Z 1121/1221 33009KT CAVOK TX30/1216Z TN17/1203Z PROB40
TEMPO 1206/1215 SHRA SCT040TCU PROB30
TEMPO 1204/1208 TS SCT040CB PROB30
TEMPO 1212/1215 VRB20G30KT TS FEW040CB

Example: see airport list